sensor_id;sensor_type;location;lat;lon;timestamp;P1;durP1;ratioP1;P2;durP2;ratioP2
51883;SDS011;37915;53.254;6.598;2023-06-01T00:01:27;13.95;;;5.00;;
51883;SDS011;37915;53.254;6.598;2023-06-01T00:03:58;12.02;;;4.70;;
51883;SDS011;37915;53.254;6.598;2023-06-01T00:06:24;14.10;;;5.75;;
51883;SDS011;37915;53.254;6.598;2023-06-01T00:08:56;10.85;;;5.03;;
51883;SDS011;37915;53.254;6.598;2023-06-01T00:11:23;11.20;;;4.88;;
51883;SDS011;37915;53.254;6.598;2023-06-01T00:13:50;10.82;;;4.63;;
51883;SDS011;37915;53.254;6.598;2023-06-01T00:16:17;11.65;;;5.07;;
51883;SDS011;37915;53.254;6.598;2023-06-01T00:18:42;12.10;;;4.70;;
51883;SDS011;37915;53.254;6.598;2023-06-01T00:21:08;10.98;;;5.38;;
51883;SDS011;37915;53.254;6.598;2023-06-01T00:23:34;11.38;;;4.80;;
51883;SDS011;37915;53.254;6.598;2023-06-01T00:26:01;12.18;;;4.95;;
51883;SDS011;37915;53.254;6.598;2023-06-01T00:28:27;13.40;;;4.80;;
51883;SDS011;37915;53.254;6.598;2023-06-01T00:30:53;10.98;;;5.07;;
51883;SDS011;37915;53.254;6.598;2023-06-01T00:33:19;11.45;;;5.43;;
51883;SDS011;37915;53.254;6.598;2023-06-01T00:35:45;14.75;;;4.72;;
51883;SDS011;37915;53.254;6.598;2023-06-01T00:38:11;13.65;;;5.88;;
51883;SDS011;37915;53.254;6.598;2023-06-01T00:40:37;13.75;;;4.68;;
51883;SDS011;37915;53.254;6.598;2023-06-01T00:43:03;13.93;;;4.88;;
51883;SDS011;37915;53.254;6.598;2023-06-01T00:45:29;13.88;;;5.13;;
51883;SDS011;37915;53.254;6.598;2023-06-01T00:47:55;9.02;;;4.80;;
51883;SDS011;37915;53.254;6.598;2023-06-01T00:50:21;10.77;;;4.95;;
51883;SDS011;37915;53.254;6.598;2023-06-01T00:52:48;12.32;;;5.13;;
51883;SDS011;37915;53.254;6.598;2023-06-01T00:55:15;13.48;;;5.07;;
51883;SDS011;37915;53.254;6.598;2023-06-01T00:57:44;10.85;;;4.90;;
51883;SDS011;37915;53.254;6.598;2023-06-01T01:00:10;14.25;;;4.80;;
51883;SDS011;37915;53.254;6.598;2023-06-01T01:02:37;11.63;;;5.45;;
51883;SDS011;37915;53.254;6.598;2023-06-01T01:05:08;15.00;;;5.72;;
51883;SDS011;37915;53.254;6.598;2023-06-01T01:13:14;13.63;;;5.70;;
51883;SDS011;37915;53.254;6.598;2023-06-01T01:21:04;14.15;;;5.65;;
51883;SDS011;37915;53.254;6.598;2023-06-01T01:29:44;11.32;;;5.07;;
51883;SDS011;37915;53.254;6.598;2023-06-01T01:32:11;13.45;;;5.97;;
51883;SDS011;37915;53.254;6.598;2023-06-01T01:34:38;12.90;;;4.88;;
51883;SDS011;37915;53.254;6.598;2023-06-01T01:37:05;13.40;;;5.28;;
51883;SDS011;37915;53.254;6.598;2023-06-01T01:39:31;15.82;;;4.85;;
51883;SDS011;37915;53.254;6.598;2023-06-01T01:41:57;10.77;;;4.72;;
51883;SDS011;37915;53.254;6.598;2023-06-01T01:44:23;13.32;;;5.15;;
51883;SDS011;37915;53.254;6.598;2023-06-01T01:46:52;11.23;;;4.60;;
51883;SDS011;37915;53.254;6.598;2023-06-01T01:49:46;8.10;;;4.32;;
51883;SDS011;37915;53.254;6.598;2023-06-01T01:52:26;10.27;;;4.95;;
51883;SDS011;37915;53.254;6.598;2023-06-01T01:55:05;11.60;;;5.07;;
51883;SDS011;37915;53.254;6.598;2023-06-01T01:57:33;12.95;;;4.80;;
51883;SDS011;37915;53.254;6.598;2023-06-01T02:00:01;8.27;;;4.68;;
51883;SDS011;37915;53.254;6.598;2023-06-01T02:02:28;9.45;;;3.72;;
51883;SDS011;37915;53.254;6.598;2023-06-01T02:04:55;7.53;;;3.55;;
51883;SDS011;37915;53.254;6.598;2023-06-01T02:07:21;10.45;;;3.65;;
51883;SDS011;37915;53.254;6.598;2023-06-01T02:09:47;7.93;;;3.08;;
51883;SDS011;37915;53.254;6.598;2023-06-01T02:12:12;8.52;;;3.58;;
51883;SDS011;37915;53.254;6.598;2023-06-01T02:14:38;6.93;;;3.35;;
51883;SDS011;37915;53.254;6.598;2023-06-01T02:17:04;8.25;;;3.67;;
51883;SDS011;37915;53.254;6.598;2023-06-01T02:19:30;9.45;;;3.65;;
51883;SDS011;37915;53.254;6.598;2023-06-01T02:21:56;9.85;;;3.92;;
51883;SDS011;37915;53.254;6.598;2023-06-01T02:24:22;9.45;;;3.55;;
51883;SDS011;37915;53.254;6.598;2023-06-01T02:26:48;10.65;;;4.07;;
51883;SDS011;37915;53.254;6.598;2023-06-01T02:29:17;12.32;;;3.58;;
51883;SDS011;37915;53.254;6.598;2023-06-01T02:31:45;11.55;;;3.60;;
51883;SDS011;37915;53.254;6.598;2023-06-01T02:34:10;10.60;;;4.35;;
51883;SDS011;37915;53.254;6.598;2023-06-01T02:36:36;11.40;;;4.07;;
51883;SDS011;37915;53.254;6.598;2023-06-01T02:39:02;9.02;;;3.70;;
51883;SDS011;37915;53.254;6.598;2023-06-01T02:41:28;8.20;;;3.90;;
51883;SDS011;37915;53.254;6.598;2023-06-01T02:43:53;8.70;;;3.17;;
51883;SDS011;37915;53.254;6.598;2023-06-01T02:46:19;7.57;;;3.63;;
51883;SDS011;37915;53.254;6.598;2023-06-01T02:48:45;9.65;;;3.70;;
51883;SDS011;37915;53.254;6.598;2023-06-01T02:51:11;10.48;;;3.72;;
51883;SDS011;37915;53.254;6.598;2023-06-01T02:53:40;8.40;;;3.38;;
51883;SDS011;37915;53.254;6.598;2023-06-01T02:56:06;9.50;;;3.83;;
51883;SDS011;37915;53.254;6.598;2023-06-01T02:58:32;7.63;;;3.58;;
51883;SDS011;37915;53.254;6.598;2023-06-01T03:00:58;14.77;;;4.28;;
51883;SDS011;37915;53.254;6.598;2023-06-01T03:03:24;11.35;;;4.18;;
51883;SDS011;37915;53.254;6.598;2023-06-01T03:05:51;10.88;;;4.50;;
51883;SDS011;37915;53.254;6.598;2023-06-01T03:08:17;15.40;;;4.55;;
51883;SDS011;37915;53.254;6.598;2023-06-01T03:10:43;11.52;;;5.22;;
51883;SDS011;37915;53.254;6.598;2023-06-01T03:13:09;15.27;;;5.53;;
51883;SDS011;37915;53.254;6.598;2023-06-01T03:15:35;11.65;;;4.40;;
51883;SDS011;37915;53.254;6.598;2023-06-01T03:18:02;12.50;;;4.50;;
51883;SDS011;37915;53.254;6.598;2023-06-01T03:20:29;11.38;;;4.30;;
51883;SDS011;37915;53.254;6.598;2023-06-01T03:22:54;9.90;;;4.32;;
51883;SDS011;37915;53.254;6.598;2023-06-01T03:25:20;11.80;;;4.55;;
51883;SDS011;37915;53.254;6.598;2023-06-01T03:27:46;11.35;;;4.63;;
51883;SDS011;37915;53.254;6.598;2023-06-01T03:30:12;10.68;;;4.50;;
51883;SDS011;37915;53.254;6.598;2023-06-01T03:32:42;9.63;;;4.20;;
51883;SDS011;37915;53.254;6.598;2023-06-01T03:35:08;10.48;;;4.75;;
51883;SDS011;37915;53.254;6.598;2023-06-01T03:37:35;9.07;;;4.30;;
51883;SDS011;37915;53.254;6.598;2023-06-01T03:40:05;10.07;;;4.53;;
51883;SDS011;37915;53.254;6.598;2023-06-01T03:42:42;12.25;;;4.57;;
51883;SDS011;37915;53.254;6.598;2023-06-01T03:45:10;12.77;;;4.70;;
51883;SDS011;37915;53.254;6.598;2023-06-01T03:47:36;12.38;;;5.35;;
51883;SDS011;37915;53.254;6.598;2023-06-01T03:50:02;11.25;;;4.93;;
51883;SDS011;37915;53.254;6.598;2023-06-01T03:52:31;13.25;;;4.95;;
51883;SDS011;37915;53.254;6.598;2023-06-01T03:54:57;15.48;;;5.55;;
51883;SDS011;37915;53.254;6.598;2023-06-01T03:57:24;15.63;;;5.47;;
51883;SDS011;37915;53.254;6.598;2023-06-01T03:59:50;16.08;;;5.13;;
51883;SDS011;37915;53.254;6.598;2023-06-01T04:02:19;11.27;;;5.47;;
51883;SDS011;37915;53.254;6.598;2023-06-01T04:04:45;13.73;;;5.53;;
51883;SDS011;37915;53.254;6.598;2023-06-01T04:07:12;10.43;;;4.28;;
51883;SDS011;37915;53.254;6.598;2023-06-01T04:09:47;11.73;;;4.22;;
51883;SDS011;37915;53.254;6.598;2023-06-01T04:12:13;12.40;;;4.25;;
51883;SDS011;37915;53.254;6.598;2023-06-01T04:14:39;12.77;;;4.68;;
51883;SDS011;37915;53.254;6.598;2023-06-01T04:17:05;11.60;;;4.05;;
51883;SDS011;37915;53.254;6.598;2023-06-01T04:19:32;11.18;;;4.75;;
51883;SDS011;37915;53.254;6.598;2023-06-01T04:21:59;9.20;;;4.75;;
51883;SDS011;37915;53.254;6.598;2023-06-01T04:24:25;10.50;;;3.95;;
51883;SDS011;37915;53.254;6.598;2023-06-01T04:26:51;12.55;;;3.50;;
51883;SDS011;37915;53.254;6.598;2023-06-01T04:29:17;9.75;;;3.70;;
51883;SDS011;37915;53.254;6.598;2023-06-01T04:31:47;8.32;;;3.42;;
51883;SDS011;37915;53.254;6.598;2023-06-01T04:34:13;8.93;;;3.33;;
51883;SDS011;37915;53.254;6.598;2023-06-01T04:36:39;6.40;;;3.15;;
51883;SDS011;37915;53.254;6.598;2023-06-01T04:39:05;8.63;;;3.70;;
51883;SDS011;37915;53.254;6.598;2023-06-01T04:41:32;11.88;;;3.42;;
51883;SDS011;37915;53.254;6.598;2023-06-01T04:44:00;9.50;;;4.63;;
51883;SDS011;37915;53.254;6.598;2023-06-01T04:46:26;7.65;;;3.47;;
51883;SDS011;37915;53.254;6.598;2023-06-01T04:48:52;9.82;;;3.80;;
51883;SDS011;37915;53.254;6.598;2023-06-01T04:51:20;8.93;;;4.18;;
51883;SDS011;37915;53.254;6.598;2023-06-01T04:53:47;8.73;;;3.90;;
51883;SDS011;37915;53.254;6.598;2023-06-01T04:56:23;8.13;;;3.65;;
51883;SDS011;37915;53.254;6.598;2023-06-01T04:58:51;7.80;;;3.28;;
51883;SDS011;37915;53.254;6.598;2023-06-01T05:01:18;8.13;;;3.03;;
51883;SDS011;37915;53.254;6.598;2023-06-01T05:03:44;8.10;;;3.13;;
51883;SDS011;37915;53.254;6.598;2023-06-01T05:06:11;6.45;;;2.83;;
51883;SDS011;37915;53.254;6.598;2023-06-01T05:08:41;10.32;;;3.92;;
51883;SDS011;37915;53.254;6.598;2023-06-01T05:11:07;9.82;;;4.05;;
51883;SDS011;37915;53.254;6.598;2023-06-01T05:13:37;9.48;;;3.70;;
51883;SDS011;37915;53.254;6.598;2023-06-01T05:16:04;6.78;;;3.65;;
51883;SDS011;37915;53.254;6.598;2023-06-01T05:18:31;8.02;;;3.42;;
51883;SDS011;37915;53.254;6.598;2023-06-01T05:20:58;8.30;;;3.80;;
51883;SDS011;37915;53.254;6.598;2023-06-01T05:23:24;7.78;;;3.70;;
51883;SDS011;37915;53.254;6.598;2023-06-01T05:25:51;11.27;;;4.28;;
51883;SDS011;37915;53.254;6.598;2023-06-01T05:28:17;9.63;;;4.35;;
51883;SDS011;37915;53.254;6.598;2023-06-01T05:30:43;9.82;;;4.47;;
51883;SDS011;37915;53.254;6.598;2023-06-01T05:33:08;8.38;;;4.10;;
51883;SDS011;37915;53.254;6.598;2023-06-01T05:35:35;9.93;;;3.97;;
51883;SDS011;37915;53.254;6.598;2023-06-01T05:38:01;8.13;;;4.07;;
51883;SDS011;37915;53.254;6.598;2023-06-01T05:40:28;10.48;;;3.75;;
51883;SDS011;37915;53.254;6.598;2023-06-01T05:42:54;8.70;;;3.35;;
51883;SDS011;37915;53.254;6.598;2023-06-01T05:45:20;6.78;;;3.28;;
51883;SDS011;37915;53.254;6.598;2023-06-01T05:47:45;5.82;;;3.40;;
51883;SDS011;37915;53.254;6.598;2023-06-01T05:50:11;5.72;;;2.53;;
51883;SDS011;37915;53.254;6.598;2023-06-01T05:52:37;6.72;;;2.90;;
51883;SDS011;37915;53.254;6.598;2023-06-01T05:55:03;7.35;;;2.63;;
51883;SDS011;37915;53.254;6.598;2023-06-01T05:57:30;7.85;;;2.58;;
51883;SDS011;37915;53.254;6.598;2023-06-01T05:59:55;6.78;;;2.28;;
51883;SDS011;37915;53.254;6.598;2023-06-01T06:02:21;6.80;;;2.90;;
51883;SDS011;37915;53.254;6.598;2023-06-01T06:04:47;5.65;;;2.50;;
51883;SDS011;37915;53.254;6.598;2023-06-01T06:07:12;6.00;;;2.20;;
51883;SDS011;37915;53.254;6.598;2023-06-01T06:09:38;4.95;;;2.53;;
51883;SDS011;37915;53.254;6.598;2023-06-01T06:12:04;4.82;;;2.08;;
51883;SDS011;37915;53.254;6.598;2023-06-01T06:14:31;5.72;;;2.83;;
51883;SDS011;37915;53.254;6.598;2023-06-01T06:16:56;5.50;;;2.65;;
51883;SDS011;37915;53.254;6.598;2023-06-01T06:19:22;9.85;;;3.40;;
51883;SDS011;37915;53.254;6.598;2023-06-01T06:21:48;5.13;;;2.60;;
51883;SDS011;37915;53.254;6.598;2023-06-01T06:24:14;5.82;;;2.50;;
51883;SDS011;37915;53.254;6.598;2023-06-01T06:26:40;6.22;;;2.10;;
51883;SDS011;37915;53.254;6.598;2023-06-01T06:29:06;7.53;;;2.90;;
51883;SDS011;37915;53.254;6.598;2023-06-01T06:31:31;6.35;;;2.20;;
51883;SDS011;37915;53.254;6.598;2023-06-01T06:33:57;4.20;;;1.80;;
51883;SDS011;37915;53.254;6.598;2023-06-01T06:36:23;9.50;;;3.78;;
51883;SDS011;37915;53.254;6.598;2023-06-01T06:38:49;4.55;;;2.33;;
51883;SDS011;37915;53.254;6.598;2023-06-01T06:41:14;3.47;;;1.60;;
51883;SDS011;37915;53.254;6.598;2023-06-01T06:43:40;6.32;;;2.28;;
51883;SDS011;37915;53.254;6.598;2023-06-01T06:46:08;6.13;;;1.77;;
51883;SDS011;37915;53.254;6.598;2023-06-01T06:48:34;3.67;;;1.70;;
51883;SDS011;37915;53.254;6.598;2023-06-01T06:51:02;4.93;;;2.00;;
51883;SDS011;37915;53.254;6.598;2023-06-01T06:53:31;6.40;;;1.83;;
51883;SDS011;37915;53.254;6.598;2023-06-01T06:56:00;4.30;;;1.98;;
51883;SDS011;37915;53.254;6.598;2023-06-01T06:58:51;4.15;;;2.13;;
51883;SDS011;37915;53.254;6.598;2023-06-01T07:01:17;4.15;;;2.08;;
51883;SDS011;37915;53.254;6.598;2023-06-01T07:03:43;4.65;;;1.98;;
51883;SDS011;37915;53.254;6.598;2023-06-01T07:06:09;5.70;;;2.47;;
51883;SDS011;37915;53.254;6.598;2023-06-01T07:08:34;5.88;;;2.72;;
51883;SDS011;37915;53.254;6.598;2023-06-01T07:11:21;7.25;;;3.05;;
51883;SDS011;37915;53.254;6.598;2023-06-01T07:13:48;7.57;;;3.15;;
51883;SDS011;37915;53.254;6.598;2023-06-01T07:16:17;5.70;;;2.55;;
51883;SDS011;37915;53.254;6.598;2023-06-01T07:18:46;8.10;;;3.03;;
51883;SDS011;37915;53.254;6.598;2023-06-01T07:21:12;5.50;;;2.33;;
51883;SDS011;37915;53.254;6.598;2023-06-01T07:23:41;6.07;;;2.63;;
51883;SDS011;37915;53.254;6.598;2023-06-01T07:26:10;5.38;;;2.60;;
51883;SDS011;37915;53.254;6.598;2023-06-01T07:28:45;7.75;;;2.20;;
51883;SDS011;37915;53.254;6.598;2023-06-01T07:31:27;6.00;;;2.63;;
51883;SDS011;37915;53.254;6.598;2023-06-01T07:34:04;8.65;;;2.63;;
51883;SDS011;37915;53.254;6.598;2023-06-01T07:36:35;5.43;;;3.00;;
51883;SDS011;37915;53.254;6.598;2023-06-01T07:39:05;6.95;;;2.95;;
51883;SDS011;37915;53.254;6.598;2023-06-01T07:41:41;7.60;;;3.00;;
51883;SDS011;37915;53.254;6.598;2023-06-01T07:44:10;8.35;;;3.10;;
51883;SDS011;37915;53.254;6.598;2023-06-01T07:46:44;6.82;;;2.55;;
51883;SDS011;37915;53.254;6.598;2023-06-01T07:49:10;5.32;;;2.10;;
51883;SDS011;37915;53.254;6.598;2023-06-01T07:51:46;6.47;;;2.58;;
51883;SDS011;37915;53.254;6.598;2023-06-01T07:54:35;5.95;;;2.42;;
51883;SDS011;37915;53.254;6.598;2023-06-01T07:57:34;4.15;;;1.60;;
51883;SDS011;37915;53.254;6.598;2023-06-01T08:00:13;4.88;;;2.42;;
51883;SDS011;37915;53.254;6.598;2023-06-01T08:02:47;3.97;;;1.55;;
51883;SDS011;37915;53.254;6.598;2023-06-01T08:05:13;8.43;;;2.55;;
51883;SDS011;37915;53.254;6.598;2023-06-01T08:07:50;7.13;;;2.20;;
51883;SDS011;37915;53.254;6.598;2023-06-01T08:12:50;5.35;;;2.40;;
51883;SDS011;37915;53.254;6.598;2023-06-01T08:15:27;7.85;;;2.58;;
51883;SDS011;37915;53.254;6.598;2023-06-01T08:17:56;8.52;;;3.13;;
51883;SDS011;37915;53.254;6.598;2023-06-01T08:20:22;7.78;;;3.15;;
51883;SDS011;37915;53.254;6.598;2023-06-01T08:22:51;6.78;;;3.25;;
51883;SDS011;37915;53.254;6.598;2023-06-01T08:25:19;8.50;;;3.00;;
51883;SDS011;37915;53.254;6.598;2023-06-01T08:27:48;7.95;;;3.17;;
51883;SDS011;37915;53.254;6.598;2023-06-01T08:30:27;6.10;;;2.85;;
51883;SDS011;37915;53.254;6.598;2023-06-01T08:32:59;6.40;;;2.90;;
51883;SDS011;37915;53.254;6.598;2023-06-01T08:35:26;11.60;;;3.85;;
51883;SDS011;37915;53.254;6.598;2023-06-01T08:38:01;12.85;;;4.65;;
51883;SDS011;37915;53.254;6.598;2023-06-01T08:40:28;8.25;;;3.78;;
51883;SDS011;37915;53.254;6.598;2023-06-01T08:45:42;12.18;;;4.05;;
51883;SDS011;37915;53.254;6.598;2023-06-01T08:48:09;11.95;;;5.47;;
51883;SDS011;37915;53.254;6.598;2023-06-01T08:50:42;9.73;;;3.95;;
51883;SDS011;37915;53.254;6.598;2023-06-01T08:53:12;12.40;;;3.45;;
51883;SDS011;37915;53.254;6.598;2023-06-01T08:55:41;12.38;;;4.20;;
51883;SDS011;37915;53.254;6.598;2023-06-01T08:58:10;8.95;;;3.45;;
51883;SDS011;37915;53.254;6.598;2023-06-01T09:00:36;9.77;;;3.33;;
51883;SDS011;37915;53.254;6.598;2023-06-01T09:03:02;10.35;;;3.38;;
51883;SDS011;37915;53.254;6.598;2023-06-01T09:05:28;11.88;;;3.05;;
51883;SDS011;37915;53.254;6.598;2023-06-01T09:07:54;8.70;;;2.97;;
51883;SDS011;37915;53.254;6.598;2023-06-01T09:10:23;11.73;;;2.67;;
51883;SDS011;37915;53.254;6.598;2023-06-01T09:12:53;12.27;;;3.72;;
51883;SDS011;37915;53.254;6.598;2023-06-01T09:15:20;8.93;;;2.72;;
51883;SDS011;37915;53.254;6.598;2023-06-01T09:17:50;10.00;;;2.85;;
51883;SDS011;37915;53.254;6.598;2023-06-01T09:20:27;7.20;;;2.47;;
51883;SDS011;37915;53.254;6.598;2023-06-01T09:22:54;10.07;;;2.40;;
51883;SDS011;37915;53.254;6.598;2023-06-01T09:25:26;7.13;;;2.72;;
51883;SDS011;37915;53.254;6.598;2023-06-01T09:27:54;9.15;;;2.40;;
51883;SDS011;37915;53.254;6.598;2023-06-01T09:30:21;7.53;;;2.45;;
51883;SDS011;37915;53.254;6.598;2023-06-01T09:32:49;8.13;;;3.25;;
51883;SDS011;37915;53.254;6.598;2023-06-01T09:35:16;9.07;;;3.03;;
51883;SDS011;37915;53.254;6.598;2023-06-01T09:38:01;12.85;;;3.22;;
51883;SDS011;37915;53.254;6.598;2023-06-01T09:40:31;8.40;;;3.35;;
51883;SDS011;37915;53.254;6.598;2023-06-01T09:42:58;8.57;;;3.25;;
51883;SDS011;37915;53.254;6.598;2023-06-01T09:45:24;12.15;;;3.22;;
51883;SDS011;37915;53.254;6.598;2023-06-01T09:47:51;13.35;;;3.30;;
51883;SDS011;37915;53.254;6.598;2023-06-01T09:50:34;12.48;;;2.88;;
51883;SDS011;37915;53.254;6.598;2023-06-01T09:53:01;6.07;;;2.40;;
51883;SDS011;37915;53.254;6.598;2023-06-01T09:55:27;9.27;;;2.80;;
51883;SDS011;37915;53.254;6.598;2023-06-01T09:58:00;8.32;;;2.85;;
51883;SDS011;37915;53.254;6.598;2023-06-01T10:00:43;13.13;;;3.58;;
51883;SDS011;37915;53.254;6.598;2023-06-01T10:03:10;14.10;;;4.65;;
51883;SDS011;37915;53.254;6.598;2023-06-01T10:05:35;8.48;;;3.10;;
51883;SDS011;37915;53.254;6.598;2023-06-01T10:08:01;6.63;;;2.88;;
51883;SDS011;37915;53.254;6.598;2023-06-01T10:10:28;6.95;;;3.08;;
51883;SDS011;37915;53.254;6.598;2023-06-01T10:12:55;11.15;;;3.42;;
51883;SDS011;37915;53.254;6.598;2023-06-01T10:15:21;12.48;;;4.18;;
51883;SDS011;37915;53.254;6.598;2023-06-01T10:17:48;7.90;;;3.42;;
51883;SDS011;37915;53.254;6.598;2023-06-01T10:20:14;12.88;;;3.35;;
51883;SDS011;37915;53.254;6.598;2023-06-01T10:22:41;7.70;;;3.03;;
51883;SDS011;37915;53.254;6.598;2023-06-01T10:25:07;8.90;;;2.35;;
51883;SDS011;37915;53.254;6.598;2023-06-01T10:27:41;7.78;;;2.88;;
51883;SDS011;37915;53.254;6.598;2023-06-01T10:30:16;10.40;;;2.95;;
51883;SDS011;37915;53.254;6.598;2023-06-01T10:32:45;8.75;;;3.00;;
51883;SDS011;37915;53.254;6.598;2023-06-01T10:40:46;12.73;;;3.20;;
51883;SDS011;37915;53.254;6.598;2023-06-01T10:46:00;8.65;;;3.47;;
51883;SDS011;37915;53.254;6.598;2023-06-01T10:51:21;10.57;;;2.92;;
51883;SDS011;37915;53.254;6.598;2023-06-01T10:53:51;11.38;;;3.20;;
51883;SDS011;37915;53.254;6.598;2023-06-01T10:56:24;9.35;;;2.53;;
51883;SDS011;37915;53.254;6.598;2023-06-01T11:01:34;8.50;;;2.58;;
51883;SDS011;37915;53.254;6.598;2023-06-01T11:04:05;9.95;;;3.22;;
51883;SDS011;37915;53.254;6.598;2023-06-01T11:06:33;7.88;;;2.42;;
51883;SDS011;37915;53.254;6.598;2023-06-01T11:09:02;7.00;;;3.13;;
51883;SDS011;37915;53.254;6.598;2023-06-01T11:14:23;6.82;;;2.72;;
51883;SDS011;37915;53.254;6.598;2023-06-01T11:16:51;11.63;;;3.10;;
51883;SDS011;37915;53.254;6.598;2023-06-01T11:19:24;7.50;;;2.42;;
51883;SDS011;37915;53.254;6.598;2023-06-01T11:21:58;15.07;;;3.85;;
51883;SDS011;37915;53.254;6.598;2023-06-01T11:24:34;9.30;;;3.17;;
51883;SDS011;37915;53.254;6.598;2023-06-01T11:27:08;14.82;;;2.53;;
51883;SDS011;37915;53.254;6.598;2023-06-01T11:29:35;10.00;;;2.50;;
51883;SDS011;37915;53.254;6.598;2023-06-01T11:32:02;11.20;;;2.88;;
51883;SDS011;37915;53.254;6.598;2023-06-01T11:34:37;9.18;;;2.92;;
51883;SDS011;37915;53.254;6.598;2023-06-01T11:37:06;8.52;;;3.03;;
51883;SDS011;37915;53.254;6.598;2023-06-01T11:39:41;8.55;;;3.10;;
51883;SDS011;37915;53.254;6.598;2023-06-01T11:42:08;7.40;;;2.47;;
51883;SDS011;37915;53.254;6.598;2023-06-01T11:44:39;12.50;;;3.13;;
51883;SDS011;37915;53.254;6.598;2023-06-01T11:47:07;11.80;;;3.63;;
51883;SDS011;37915;53.254;6.598;2023-06-01T11:49:40;6.90;;;3.00;;
51883;SDS011;37915;53.254;6.598;2023-06-01T11:52:12;8.27;;;3.55;;
51883;SDS011;37915;53.254;6.598;2023-06-01T11:54:37;13.45;;;3.65;;
51883;SDS011;37915;53.254;6.598;2023-06-01T11:57:03;10.10;;;3.10;;
51883;SDS011;37915;53.254;6.598;2023-06-01T11:59:37;10.65;;;3.05;;
51883;SDS011;37915;53.254;6.598;2023-06-01T12:02:03;9.98;;;3.40;;
51883;SDS011;37915;53.254;6.598;2023-06-01T12:07:31;9.68;;;3.35;;
51883;SDS011;37915;53.254;6.598;2023-06-01T12:10:09;10.57;;;3.63;;
51883;SDS011;37915;53.254;6.598;2023-06-01T12:15:14;8.48;;;3.45;;
51883;SDS011;37915;53.254;6.598;2023-06-01T12:17:59;8.93;;;4.30;;
51883;SDS011;37915;53.254;6.598;2023-06-01T12:20:35;11.45;;;4.20;;
51883;SDS011;37915;53.254;6.598;2023-06-01T12:23:11;13.13;;;4.00;;
51883;SDS011;37915;53.254;6.598;2023-06-01T12:25:50;16.63;;;4.75;;
51883;SDS011;37915;53.254;6.598;2023-06-01T12:28:22;10.23;;;3.53;;
51883;SDS011;37915;53.254;6.598;2023-06-01T12:30:51;12.73;;;3.45;;
51883;SDS011;37915;53.254;6.598;2023-06-01T12:33:37;10.60;;;3.67;;
51883;SDS011;37915;53.254;6.598;2023-06-01T12:36:04;11.68;;;3.35;;
51883;SDS011;37915;53.254;6.598;2023-06-01T12:38:35;14.15;;;3.78;;
51883;SDS011;37915;53.254;6.598;2023-06-01T12:41:08;42.22;;;5.75;;
51883;SDS011;37915;53.254;6.598;2023-06-01T12:43:37;15.13;;;4.00;;
51883;SDS011;37915;53.254;6.598;2023-06-01T12:46:04;12.68;;;3.88;;
51883;SDS011;37915;53.254;6.598;2023-06-01T12:48:33;11.43;;;3.78;;
51883;SDS011;37915;53.254;6.598;2023-06-01T12:51:01;9.75;;;3.60;;
51883;SDS011;37915;53.254;6.598;2023-06-01T12:53:28;9.43;;;3.67;;
51883;SDS011;37915;53.254;6.598;2023-06-01T12:55:54;10.77;;;3.58;;
51883;SDS011;37915;53.254;6.598;2023-06-01T12:58:20;11.75;;;4.10;;
51883;SDS011;37915;53.254;6.598;2023-06-01T13:00:46;9.23;;;3.45;;
51883;SDS011;37915;53.254;6.598;2023-06-01T13:03:14;10.70;;;4.00;;
51883;SDS011;37915;53.254;6.598;2023-06-01T13:05:42;9.55;;;3.60;;
51883;SDS011;37915;53.254;6.598;2023-06-01T13:08:15;11.95;;;4.18;;
51883;SDS011;37915;53.254;6.598;2023-06-01T13:10:44;11.27;;;3.50;;
51883;SDS011;37915;53.254;6.598;2023-06-01T13:13:10;10.10;;;3.83;;
51883;SDS011;37915;53.254;6.598;2023-06-01T13:15:41;8.48;;;3.10;;
51883;SDS011;37915;53.254;6.598;2023-06-01T13:18:07;12.30;;;3.15;;
51883;SDS011;37915;53.254;6.598;2023-06-01T13:20:34;8.32;;;2.60;;
51883;SDS011;37915;53.254;6.598;2023-06-01T13:23:01;6.18;;;2.55;;
51883;SDS011;37915;53.254;6.598;2023-06-01T13:25:26;5.82;;;2.30;;
51883;SDS011;37915;53.254;6.598;2023-06-01T13:27:52;9.05;;;2.47;;
51883;SDS011;37915;53.254;6.598;2023-06-01T13:30:18;7.30;;;2.25;;
51883;SDS011;37915;53.254;6.598;2023-06-01T13:32:44;5.45;;;2.60;;
51883;SDS011;37915;53.254;6.598;2023-06-01T13:35:10;9.45;;;2.60;;
51883;SDS011;37915;53.254;6.598;2023-06-01T13:37:36;9.95;;;3.30;;
51883;SDS011;37915;53.254;6.598;2023-06-01T13:40:03;7.50;;;3.17;;
51883;SDS011;37915;53.254;6.598;2023-06-01T13:42:32;8.27;;;2.28;;
51883;SDS011;37915;53.254;6.598;2023-06-01T13:44:58;9.57;;;2.60;;
51883;SDS011;37915;53.254;6.598;2023-06-01T13:47:24;10.30;;;2.53;;
51883;SDS011;37915;53.254;6.598;2023-06-01T13:49:50;8.75;;;2.20;;
51883;SDS011;37915;53.254;6.598;2023-06-01T13:52:16;8.55;;;2.58;;
51883;SDS011;37915;53.254;6.598;2023-06-01T13:54:42;8.50;;;2.63;;
51883;SDS011;37915;53.254;6.598;2023-06-01T13:57:08;8.63;;;2.47;;
51883;SDS011;37915;53.254;6.598;2023-06-01T13:59:34;6.03;;;2.20;;
51883;SDS011;37915;53.254;6.598;2023-06-01T14:02:01;7.57;;;2.28;;
51883;SDS011;37915;53.254;6.598;2023-06-01T14:04:31;14.70;;;2.50;;
51883;SDS011;37915;53.254;6.598;2023-06-01T14:06:56;6.03;;;1.90;;
51883;SDS011;37915;53.254;6.598;2023-06-01T14:09:22;5.93;;;1.77;;
51883;SDS011;37915;53.254;6.598;2023-06-01T14:11:49;4.75;;;1.65;;
51883;SDS011;37915;53.254;6.598;2023-06-01T14:14:15;7.28;;;2.08;;
51883;SDS011;37915;53.254;6.598;2023-06-01T14:16:41;3.92;;;1.60;;
51883;SDS011;37915;53.254;6.598;2023-06-01T14:19:07;4.72;;;1.83;;
51883;SDS011;37915;53.254;6.598;2023-06-01T14:21:33;4.95;;;2.00;;
51883;SDS011;37915;53.254;6.598;2023-06-01T14:24:01;7.40;;;2.10;;
51883;SDS011;37915;53.254;6.598;2023-06-01T14:26:27;10.25;;;2.00;;
51883;SDS011;37915;53.254;6.598;2023-06-01T14:28:53;5.70;;;1.77;;
51883;SDS011;37915;53.254;6.598;2023-06-01T14:31:20;5.13;;;1.70;;
51883;SDS011;37915;53.254;6.598;2023-06-01T14:33:46;7.75;;;1.80;;
51883;SDS011;37915;53.254;6.598;2023-06-01T14:36:12;5.70;;;2.40;;
51883;SDS011;37915;53.254;6.598;2023-06-01T14:38:39;4.63;;;2.00;;
51883;SDS011;37915;53.254;6.598;2023-06-01T14:41:05;5.60;;;1.80;;
51883;SDS011;37915;53.254;6.598;2023-06-01T14:43:31;7.10;;;2.47;;
51883;SDS011;37915;53.254;6.598;2023-06-01T14:45:58;8.32;;;2.13;;
51883;SDS011;37915;53.254;6.598;2023-06-01T14:48:24;4.32;;;1.70;;
51883;SDS011;37915;53.254;6.598;2023-06-01T14:50:51;7.22;;;1.95;;
51883;SDS011;37915;53.254;6.598;2023-06-01T14:53:17;18.27;;;1.95;;
51883;SDS011;37915;53.254;6.598;2023-06-01T14:55:43;4.88;;;2.10;;
51883;SDS011;37915;53.254;6.598;2023-06-01T14:58:09;4.15;;;1.60;;
51883;SDS011;37915;53.254;6.598;2023-06-01T15:00:36;4.40;;;1.80;;
51883;SDS011;37915;53.254;6.598;2023-06-01T15:03:02;6.80;;;1.90;;
51883;SDS011;37915;53.254;6.598;2023-06-01T15:05:29;4.22;;;1.60;;
51883;SDS011;37915;53.254;6.598;2023-06-01T15:07:55;5.57;;;1.50;;
51883;SDS011;37915;53.254;6.598;2023-06-01T15:10:21;5.07;;;1.70;;
51883;SDS011;37915;53.254;6.598;2023-06-01T15:12:47;10.77;;;2.53;;
51883;SDS011;37915;53.254;6.598;2023-06-01T15:15:13;8.25;;;1.83;;
51883;SDS011;37915;53.254;6.598;2023-06-01T15:17:39;8.65;;;2.10;;
51883;SDS011;37915;53.254;6.598;2023-06-01T15:20:06;5.90;;;1.73;;
51883;SDS011;37915;53.254;6.598;2023-06-01T15:22:32;7.78;;;2.00;;
51883;SDS011;37915;53.254;6.598;2023-06-01T15:24:58;6.30;;;1.60;;
51883;SDS011;37915;53.254;6.598;2023-06-01T15:27:24;5.28;;;1.50;;
51883;SDS011;37915;53.254;6.598;2023-06-01T15:29:50;6.78;;;1.90;;
51883;SDS011;37915;53.254;6.598;2023-06-01T15:32:16;8.55;;;2.10;;
51883;SDS011;37915;53.254;6.598;2023-06-01T15:34:43;5.40;;;1.50;;